Time;durP1;ratioP1;P1;durP2;ratioP2;P2;SDS_P1;SDS_P2;PMS_P1;PMS_P2;Temp;Humidity;BMP_temperature;BMP_pressure;BME280_temperature;BME280_humidity;BME280_pressure;Samples;Min_cycle;Max_cycle;Signal;HPM_P1;HPM_P2
2023/12/01 00:01:05;;;;;;;39.75;19.33;;;;;;;-0.73;100.00;100324.09;6215356;23;20004;-87
2023/12/01 00:03:30;;;;;;;39.03;18.13;;;;;;;-0.69;100.00;100324.19;6216763;23;20004;-87
2023/12/01 00:06:02;;;;;;;38.97;17.98;;;;;;;-0.87;100.00;100295.75;6215057;23;20016;-86
2023/12/01 00:08:45;;;;;;;41.83;19.65;;;;;;;-0.81;100.00;100319.69;6217320;23;20008;-87
2023/12/01 00:11:10;;;;;;;40.30;19.23;;;;;;;-0.86;100.00;100313.63;6217763;23;20011;-87
2023/12/01 00:13:36;;;;;;;44.28;20.73;;;;;;;-0.95;100.00;100311.72;6215893;23;20075;-86
2023/12/01 00:16:19;;;;;;;38.45;18.55;;;;;;;-0.86;100.00;100310.22;6215956;23;20015;-87
2023/12/01 00:18:45;;;;;;;40.58;18.55;;;;;;;-0.74;100.00;100330.00;6215219;23;20364;-86
2023/12/01 00:21:28;;;;;;;38.53;17.00;;;;;;;-0.80;100.00;100316.31;6216060;23;20055;-87
2023/12/01 00:23:57;;;;;;;35.28;15.82;;;;;;;-0.79;100.00;100319.72;6216313;23;20007;-87
2023/12/01 00:26:28;;;;;;;34.67;14.93;;;;;;;-0.83;100.00;100307.72;6216236;23;20001;-87
2023/12/01 00:28:54;;;;;;;34.75;15.40;;;;;;;-0.79;100.00;100314.63;6217466;23;20008;-87
2023/12/01 00:31:25;;;;;;;38.08;17.38;;;;;;;-0.78;100.00;100335.03;6215773;23;20020;-86
2023/12/01 00:33:57;;;;;;;45.90;20.80;;;;;;;-0.90;100.00;100341.53;6215887;23;20016;-86
2023/12/01 00:36:34;;;;;;;46.30;20.85;;;;;;;-1.03;100.00;100341.25;6216882;23;20009;-86
2023/12/01 00:39:10;;;;;;;43.97;19.42;;;;;;;-1.09;100.00;100331.78;6217050;23;20000;-87
2023/12/01 00:41:44;;;;;;;45.72;21.27;;;;;;;-1.17;100.00;100315.47;6217125;23;20418;-87
2023/12/01 00:44:21;;;;;;;45.08;20.48;;;;;;;-1.07;100.00;100336.94;6216805;23;20020;-87
2023/12/01 00:46:56;;;;;;;41.38;18.50;;;;;;;-1.09;100.00;100328.38;6215950;23;20001;-86
2023/12/01 00:49:33;;;;;;;35.90;16.38;;;;;;;-1.05;100.00;100332.69;6217100;23;20005;-87
2023/12/01 00:52:08;;;;;;;39.55;17.95;;;;;;;-1.13;100.00;100337.63;6216095;23;20051;-86
2023/12/01 00:54:33;;;;;;;38.95;17.05;;;;;;;-1.01;100.00;100347.25;6216272;23;20005;-86
2023/12/01 00:57:02;;;;;;;43.35;19.13;;;;;;;-1.03;100.00;100360.78;6215919;23;20440;-86
2023/12/01 00:59:30;;;;;;;44.35;19.38;;;;;;;-1.09;100.00;100371.69;6215814;23;20004;-85
2023/12/01 01:02:01;;;;;;;43.45;18.85;;;;;;;-1.26;100.00;100358.53;6216171;23;20004;-86
2023/12/01 01:04:29;;;;;;;46.28;19.67;;;;;;;-1.18;100.00;100376.56;6216006;23;20008;-86
2023/12/01 01:07:02;;;;;;;39.78;17.23;;;;;;;-1.16;100.00;100372.31;6217107;23;20011;-87
2023/12/01 01:09:39;;;;;;;42.60;18.88;;;;;;;-1.12;100.00;100377.53;6215890;23;20072;-87
2023/12/01 01:12:13;;;;;;;44.92;18.95;;;;;;;-1.32;100.00;100364.31;6216649;23;20379;-86
2023/12/01 01:14:42;;;;;;;46.63;20.30;;;;;;;-1.33;100.00;100377.88;6216514;23;20442;-86
2023/12/01 01:17:07;;;;;;;47.55;20.80;;;;;;;-1.45;100.00;100369.91;6215901;23;20009;-86
2023/12/01 01:19:32;;;;;;;45.80;19.77;;;;;;;-1.43;100.00;100368.28;6216816;23;19997;-86
2023/12/01 01:22:06;;;;;;;41.83;17.45;;;;;;;-1.27;100.00;100382.25;6215259;23;20015;-87
2023/12/01 01:24:41;;;;;;;45.65;19.42;;;;;;;-1.46;100.00;100352.91;6216245;23;20002;-87
2023/12/01 01:27:06;;;;;;;44.00;18.15;;;;;;;-1.28;100.00;100381.38;6216744;23;20011;-87
2023/12/01 01:29:31;;;;;;;49.70;20.77;;;;;;;-1.34;100.00;100378.69;6216550;23;20083;-87
2023/12/01 01:31:57;;;;;;;44.05;18.30;;;;;;;-1.29;100.00;100381.34;6215827;23;20013;-86
2023/12/01 01:34:22;;;;;;;39.92;16.55;;;;;;;-1.28;100.00;100378.00;6216552;23;20068;-87
2023/12/01 01:36:47;;;;;;;42.70;18.42;;;;;;;-1.29;100.00;100378.81;6215284;23;20009;-87
2023/12/01 01:39:13;;;;;;;36.67;15.98;;;;;;;-1.26;100.00;100382.28;6215156;23;20008;-87
2023/12/01 01:41:44;;;;;;;43.65;18.48;;;;;;;-1.29;100.00;100379.66;6215791;23;20426;-86
2023/12/01 01:44:09;;;;;;;41.30;18.10;;;;;;;-1.39;100.00;100370.06;6217661;23;20004;-87
2023/12/01 01:46:36;;;;;;;37.70;16.45;;;;;;;-1.22;100.00;100395.94;6219477;23;20008;-87
2023/12/01 01:49:17;;;;;;;44.42;19.50;;;;;;;-1.35;100.00;100376.97;6218105;23;20299;-86
2023/12/01 01:51:44;;;;;;;44.05;18.55;;;;;;;-1.25;100.00;100403.53;6216683;23;20008;-87
2023/12/01 01:54:13;;;;;;;39.47;16.70;;;;;;;-1.33;100.00;100385.50;6217260;23;20008;-87
2023/12/01 01:56:38;;;;;;;40.78;17.25;;;;;;;-1.25;100.00;100396.75;6217128;23;20016;-87
2023/12/01 01:59:10;;;;;;;45.17;18.77;;;;;;;-1.42;100.00;100392.91;6216377;23;20295;-86
2023/12/01 02:01:39;;;;;;;47.20;19.80;;;;;;;-1.47;100.00;100389.38;6217255;23;20001;-87
2023/12/01 02:04:14;;;;;;;47.00;19.58;;;;;;;-1.59;100.00;100389.91;6215955;23;20509;-85
2023/12/01 02:06:39;;;;;;;49.50;19.98;;;;;;;-1.70;100.00;100387.06;6217302;23;20016;-87
2023/12/01 02:09:27;;;;;;;46.45;18.65;;;;;;;-1.67;100.00;100384.63;6216718;23;20004;-86
2023/12/01 02:12:08;;;;;;;44.22;18.65;;;;;;;-1.58;100.00;100399.28;6215797;23;20426;-86
2023/12/01 02:14:33;;;;;;;47.78;19.45;;;;;;;-1.76;100.00;100397.09;6217063;23;20027;-86
2023/12/01 02:16:58;;;;;;;46.20;19.67;;;;;;;-1.69;100.00;100410.84;6215960;23;20330;-86
2023/12/01 02:19:23;;;;;;;46.03;18.55;;;;;;;-1.64;100.00;100415.25;6216315;23;20116;-87
2023/12/01 02:21:51;;;;;;;46.72;19.95;;;;;;;-1.69;100.00;100390.50;6216533;23;20046;-86
2023/12/01 02:24:28;;;;;;;46.78;18.85;;;;;;;-1.76;100.00;100390.31;6216343;23;20007;-86
2023/12/01 02:26:54;;;;;;;41.83;17.33;;;;;;;-1.67;100.00;100396.47;6216540;23;20465;-87
2023/12/01 02:29:36;;;;;;;48.42;20.15;;;;;;;-1.66;100.00;100403.28;6217801;23;20004;-87
2023/12/01 02:32:07;;;;;;;47.72;19.60;;;;;;;-1.76;100.00;100385.22;6217338;23;20039;-86
2023/12/01 02:34:33;;;;;;;44.97;17.63;;;;;;;-1.59;100.00;100408.59;6217640;23;20012;-87
2023/12/01 02:37:06;;;;;;;43.17;18.38;;;;;;;-1.59;100.00;100400.09;6217694;23;20329;-86
2023/12/01 02:39:44;;;;;;;44.45;17.60;;;;;;;-1.56;100.00;100403.59;6217353;23;20008;-86
2023/12/01 02:42:09;;;;;;;49.40;20.40;;;;;;;-1.50;100.00;100417.28;6216132;23;20005;-87
2023/12/01 02:44:56;;;;;;;45.83;19.75;;;;;;;-1.44;100.00;100430.19;6217016;23;20004;-87
2023/12/01 02:47:20;;;;;;;46.25;18.90;;;;;;;-1.43;100.00;100422.59;6214884;23;20044;-87
2023/12/01 02:49:48;;;;;;;51.30;20.58;;;;;;;-1.55;100.00;100406.97;6217001;23;20414;-86
2023/12/01 02:52:23;;;;;;;51.35;21.05;;;;;;;-1.52;100.00;100409.63;6216743;23;20056;-87
2023/12/01 02:54:51;;;;;;;45.22;18.77;;;;;;;-1.61;100.00;100383.91;6216234;23;20036;-87
2023/12/01 02:57:35;;;;;;;49.92;20.08;;;;;;;-1.52;100.00;100401.97;6217402;23;20055;-86
2023/12/01 03:00:13;;;;;;;45.17;18.88;;;;;;;-1.41;100.00;100417.56;6217761;23;20001;-86
2023/12/01 03:02:56;;;;;;;44.50;18.63;;;;;;;-1.54;100.00;100390.88;6217894;23;20005;-87
2023/12/01 03:05:33;;;;;;;44.83;18.75;;;;;;;-1.45;100.00;100403.00;6217188;23;20104;-87
2023/12/01 03:08:04;;;;;;;47.47;18.75;;;;;;;-1.45;100.00;100411.50;6216745;23;20024;-86
2023/12/01 03:10:37;;;;;;;51.65;19.85;;;;;;;-1.49;100.00;100399.53;6217286;23;20442;-86
2023/12/01 03:13:06;;;;;;;43.35;16.67;;;;;;;-1.45;100.00;100410.66;6218018;23;20001;-87
2023/12/01 03:15:43;;;;;;;43.22;16.23;;;;;;;-1.48;100.00;100400.38;6217685;23;20027;-87
2023/12/01 03:18:08;;;;;;;39.83;15.35;;;;;;;-1.47;100.00;100397.00;6218076;23;20047;-87
2023/12/01 03:20:42;;;;;;;53.28;21.50;;;;;;;-1.67;100.00;100386.28;6217237;23;19993;-86
2023/12/01 03:23:13;;;;;;;50.80;19.98;;;;;;;-1.64;100.00;100397.44;6215123;23;20334;-86
2023/12/01 03:25:38;;;;;;;53.92;20.02;;;;;;;-1.72;100.00;100407.41;6217138;23;20008;-86
2023/12/01 03:28:05;;;;;;;50.60;19.80;;;;;;;-1.76;100.00;100392.00;6217751;23;20311;-85
2023/12/01 03:30:33;;;;;;;54.28;20.17;;;;;;;-1.76;100.00;100395.41;6216877;23;20046;-87
2023/12/01 03:33:24;;;;;;;52.38;19.95;;;;;;;-1.61;100.00;100424.63;6215943;23;20016;-87
2023/12/01 03:35:52;;;;;;;51.00;20.00;;;;;;;-1.74;100.00;100406.47;6215723;23;20079;-87
2023/12/01 03:38:23;;;;;;;50.33;18.63;;;;;;;-1.72;100.00;100397.22;6217277;23;20008;-86
2023/12/01 03:41:00;;;;;;;52.97;19.60;;;;;;;-1.65;100.00;100420.28;6217710;23;20054;-86
2023/12/01 03:43:25;;;;;;;62.65;22.27;;;;;;;-1.60;100.00;100428.91;6216523;23;20495;-86
2023/12/01 03:46:00;;;;;;;57.03;21.15;;;;;;;-1.78;100.00;100403.81;6217245;23;20043;-87
2023/12/01 03:48:33;;;;;;;54.65;20.77;;;;;;;-1.68;100.00;100420.19;6215826;23;20035;-87
2023/12/01 03:51:11;;;;;;;45.10;17.65;;;;;;;-1.62;100.00;100428.84;6215684;23;20005;-86
2023/12/01 03:53:37;;;;;;;49.90;17.42;;;;;;;-1.62;100.00;100420.38;6217649;23;20080;-87
2023/12/01 03:56:06;;;;;;;47.90;17.20;;;;;;;-1.63;100.00;100416.09;6217383;23;20016;-86
2023/12/01 03:58:37;;;;;;;52.83;19.83;;;;;;;-1.60;100.00;100421.28;6216065;23;20012;-86
2023/12/01 04:01:14;;;;;;;49.28;17.63;;;;;;;-1.67;100.00;100429.53;6216418;23;20009;-87
2023/12/01 04:03:40;;;;;;;52.28;19.30;;;;;;;-1.73;100.00;100427.69;6216346;23;20036;-87
2023/12/01 04:06:07;;;;;;;50.13;18.52;;;;;;;-1.82;100.00;100435.94;6216081;23;20012;-87
2023/12/01 04:08:41;;;;;;;49.80;18.88;;;;;;;-1.87;100.00;100446.00;6216925;23;20005;-86
2023/12/01 04:11:22;;;;;;;52.70;19.05;;;;;;;-1.92;100.00;100442.44;6215652;23;20000;-87
2023/12/01 04:13:53;;;;;;;50.00;17.83;;;;;;;-1.96;100.00;100434.66;6216922;23;20169;-87
2023/12/01 04:16:30;;;;;;;48.00;17.50;;;;;;;-1.88;100.00;100453.56;6216764;23;20036;-87
2023/12/01 04:18:56;;;;;;;43.55;15.98;;;;;;;-1.84;100.00;100450.28;6214372;23;20011;-87
2023/12/01 04:21:39;;;;;;;35.45;12.55;;;;;;;-1.79;100.00;100452.97;6215837;23;19997;-87
2023/12/01 04:24:06;;;;;;;40.13;15.10;;;;;;;-1.82;100.00;100450.31;6215427;23;20012;-87
2023/12/01 04:26:44;;;;;;;46.83;17.30;;;;;;;-1.84;100.00;100447.75;6215496;23;20001;-87
2023/12/01 04:29:09;;;;;;;43.15;15.73;;;;;;;-1.91;100.00;100440.75;6215289;23;20072;-87
2023/12/01 04:31:34;;;;;;;48.67;18.02;;;;;;;-1.96;100.00;100445.69;6215886;23;20355;-86
2023/12/01 04:34:00;;;;;;;44.47;16.83;;;;;;;-1.77;100.00;100472.53;6214576;23;20012;-87
2023/12/01 04:36:34;;;;;;;39.90;15.52;;;;;;;-1.71;100.00;100479.50;6215611;23;20414;-87
2023/12/01 04:39:05;;;;;;;36.42;13.23;;;;;;;-1.75;100.00;100459.88;6214620;23;20021;-87
2023/12/01 04:41:30;;;;;;;34.20;12.13;;;;;;;-1.58;100.00;100475.63;6215238;23;20008;-87
2023/12/01 04:43:56;;;;;;;41.08;15.05;;;;;;;-1.68;100.00;100456.69;6215821;23;20083;-87
2023/12/01 04:46:36;;;;;;;50.60;17.95;;;;;;;-1.66;100.00;100467.78;6215041;23;20001;-87
2023/12/01 04:49:02;;;;;;;53.05;19.45;;;;;;;-1.79;100.00;100456.34;6215555;23;20011;-86
2023/12/01 04:51:37;;;;;;;52.42;19.05;;;;;;;-1.84;100.00;100451.97;6215742;23;20035;-87
2023/12/01 04:54:06;;;;;;;56.15;21.38;;;;;;;-1.86;100.00;100468.03;6214942;23;20004;-87
2023/12/01 04:56:32;;;;;;;56.15;21.45;;;;;;;-1.87;100.00;100470.53;6215669;23;20005;-87
2023/12/01 04:59:06;;;;;;;54.00;20.50;;;;;;;-1.88;100.00;100462.06;6215485;23;20011;-87
2023/12/01 05:01:35;;;;;;;44.65;16.95;;;;;;;-1.77;100.00;100476.78;6215026;23;20381;-87
2023/12/01 05:04:01;;;;;;;42.05;15.68;;;;;;;-1.63;100.00;100494.97;6215287;23;20059;-86
2023/12/01 05:06:38;;;;;;;52.88;19.45;;;;;;;-1.78;100.00;100481.00;6215871;23;20012;-87
2023/12/01 05:09:16;;;;;;;48.47;18.88;;;;;;;-1.61;100.00;100509.47;6215002;23;20001;-87
2023/12/01 05:11:45;;;;;;;50.72;18.98;;;;;;;-1.69;100.00;100480.41;6187869;23;20012;-87
2023/12/01 05:14:16;;;;;;;49.03;18.85;;;;;;;-1.66;100.00;100482.16;6215216;23;20001;-87
2023/12/01 05:16:42;;;;;;;40.83;15.82;;;;;;;-1.50;100.00;100504.69;6217979;23;20005;-87
2023/12/01 05:19:08;;;;;;;42.72;16.02;;;;;;;-1.43;100.00;100514.22;6218726;23;20333;-86
2023/12/01 05:21:36;;;;;;;44.97;17.35;;;;;;;-1.56;100.00;100492.66;6218423;23;20005;-87
2023/12/01 05:24:07;;;;;;;41.20;15.20;;;;;;;-1.44;100.00;100509.94;6218792;23;20330;-87
2023/12/01 05:26:36;;;;;;;40.42;15.15;;;;;;;-1.41;100.00;100506.66;6219183;23;20055;-87
2023/12/01 05:29:04;;;;;;;53.67;20.08;;;;;;;-1.37;100.00;100512.69;6218026;23;20000;-87
2023/12/01 05:31:44;;;;;;;57.40;23.35;;;;;;;-1.59;100.00;100501.91;6218558;23;20116;-86
2023/12/01 05:34:09;;;;;;;57.95;23.77;;;;;;;-1.59;100.00;100505.28;6187158;23;20013;-87
2023/12/01 05:36:35;;;;;;;60.50;24.85;;;;;;;-1.78;100.00;100515.75;6187425;23;20012;-86
2023/12/01 05:39:12;;;;;;;57.17;23.40;;;;;;;-1.73;100.00;100534.56;6187409;23;20419;-86
2023/12/01 05:41:53;;;;;;;54.35;23.80;;;;;;;-1.93;100.00;100509.38;6187328;23;20009;-87
2023/12/01 05:44:19;;;;;;;54.20;23.38;;;;;;;-1.93;100.00;100511.94;6186608;23;20103;-87
2023/12/01 05:46:46;;;;;;;49.35;21.33;;;;;;;-1.75;100.00;100531.97;6187132;23;20005;-88
2023/12/01 05:49:12;;;;;;;50.85;22.02;;;;;;;-1.79;100.00;100531.84;6186330;23;20087;-87
2023/12/01 05:51:37;;;;;;;44.33;18.95;;;;;;;-1.68;100.00;100542.31;6187777;23;20426;-87
2023/12/01 05:54:21;;;;;;;55.55;22.98;;;;;;;-1.74;100.00;100541.34;6186709;23;20407;-87
2023/12/01 05:56:55;;;;;;;51.03;20.98;;;;;;;-1.67;100.00;100538.97;6207873;22;20044;-87
2023/12/01 05:59:38;;;;;;;47.20;20.17;;;;;;;-1.69;100.00;100538.06;6249367;23;20027;-87
2023/12/01 06:02:12;;;;;;;43.78;19.45;;;;;;;-1.69;100.00;100530.44;6248355;23;20004;-87
2023/12/01 06:04:38;;;;;;;43.17;17.98;;;;;;;-1.54;100.00;100548.69;6246117;23;20036;-87
2023/12/01 06:07:07;;;;;;;40.63;16.80;;;;;;;-1.59;100.00;100525.66;6248362;23;20011;-86
2023/12/01 06:09:33;;;;;;;44.35;18.95;;;;;;;-1.44;100.00;100549.84;6249417;23;20251;-87
2023/12/01 06:11:58;;;;;;;37.08;16.20;;;;;;;-1.42;100.00;100543.97;6247771;23;20358;-87
2023/12/01 06:14:36;;;;;;;42.03;18.33;;;;;;;-1.45;100.00;100540.47;6249135;23;20008;-87
2023/12/01 06:17:01;;;;;;;44.03;19.08;;;;;;;-1.35;100.00;100552.63;6248899;23;20031;-87
2023/12/01 06:19:29;;;;;;;37.85;16.67;;;;;;;-1.35;100.00;100547.53;6248185;23;20413;-87
2023/12/01 06:21:57;;;;;;;51.05;23.05;;;;;;;-1.40;100.00;100559.25;6249104;23;20008;-87
2023/12/01 06:24:23;;;;;;;47.45;21.08;;;;;;;-1.37;100.00;100563.59;6247013;23;20295;-87
2023/12/01 06:26:48;;;;;;;49.13;20.83;;;;;;;-1.42;100.00;100564.31;6247146;23;20000;-86
2023/12/01 06:29:14;;;;;;;49.35;21.33;;;;;;;-1.47;100.00;100570.97;6246864;23;20007;-86
2023/12/01 06:31:42;;;;;;;43.50;19.70;;;;;;;-1.50;100.00;100549.63;6246654;23;20004;-86
2023/12/01 06:34:07;;;;;;;46.78;20.23;;;;;;;-1.47;100.00;100558.25;6246431;23;20491;-87
2023/12/01 06:36:35;;;;;;;42.42;18.55;;;;;;;-1.43;100.00;100559.19;6246254;23;20032;-87
2023/12/01 06:39:01;;;;;;;38.90;16.92;;;;;;;-1.44;100.00;100548.13;6246315;23;20071;-87
2023/12/01 06:41:29;;;;;;;41.47;18.67;;;;;;;-1.35;100.00;100567.06;6246916;23;20058;-87
2023/12/01 06:43:56;;;;;;;36.38;15.98;;;;;;;-1.34;100.00;100559.47;6247204;23;20023;-87
2023/12/01 06:46:21;;;;;;;45.20;18.65;;;;;;;-1.34;100.00;100562.00;6246183;23;20004;-87
2023/12/01 06:48:52;;;;;;;42.55;18.42;;;;;;;-1.43;100.00;100542.22;6247683;23;20051;-88
2023/12/01 06:51:29;;;;;;;37.58;15.00;;;;;;;-1.39;100.00;100530.44;6246603;23;20075;-89
2023/12/01 06:53:56;;;;;;;33.42;14.32;;;;;;;-1.28;100.00;100546.88;6246122;23;20031;-87
2023/12/01 06:56:21;;;;;;;36.45;16.15;;;;;;;-1.31;100.00;100543.41;6237450;22;20091;-87
2023/12/01 06:59:49;;;;;;;35.05;14.57;;;;;;;-1.13;100.00;100574.50;6227423;22;20520;-88
2023/12/01 07:03:00;;;;;;;27.75;11.65;;;;;;;-1.05;100.00;100573.84;6216421;23;20036;-88
2023/12/01 07:05:31;;;;;;;33.67;14.27;;;;;;;-1.18;100.00;100562.44;6216366;23;20027;-88
2023/12/01 07:07:59;;;;;;;36.35;15.52;;;;;;;-1.16;100.00;100558.25;6215851;23;20485;-87
2023/12/01 07:10:38;;;;;;;35.15;14.27;;;;;;;-1.20;100.00;100557.28;6217961;23;20005;-88
2023/12/01 07:13:13;;;;;;;32.28;12.88;;;;;;;-1.09;100.00;100575.44;6218317;23;20028;-88
2023/12/01 07:15:39;;;;;;;35.58;14.23;;;;;;;-0.99;100.00;100594.38;6217394;23;20427;-88
2023/12/01 07:18:13;;;;;;;30.08;11.73;;;;;;;-1.08;100.00;100577.16;6217946;23;20027;-88
2023/12/01 07:20:43;;;;;;;27.98;11.45;;;;;;;-1.01;100.00;100579.06;6218062;23;20008;-88
2023/12/01 07:23:08;;;;;;;25.23;10.13;;;;;;;-0.88;100.00;100594.69;6217956;23;20453;-88
2023/12/01 07:25:34;;;;;;;24.85;9.57;;;;;;;-0.96;100.00;100574.09;6217567;23;20062;-88
2023/12/01 07:28:17;;;;;;;26.73;10.60;;;;;;;-0.85;100.00;100594.78;6216909;23;20001;-85
2023/12/01 07:30:52;;;;;;;25.67;10.30;;;;;;;-0.84;100.00;100599.91;6217447;23;20005;-84
2023/12/01 07:33:17;;;;;;;27.10;10.52;;;;;;;-0.86;100.00;100590.50;6218098;23;20009;-93
2023/12/01 07:36:09;;;;;;;25.30;10.20;;;;;;;-0.72;100.00;100607.00;6220213;23;20088;-95
2023/12/01 07:38:52;;;;;;;26.35;9.90;;;;;;;-0.75;100.00;100585.69;6219734;23;20084;-94
2023/12/01 07:41:17;;;;;;;27.95;11.20;;;;;;;-0.91;100.00;100572.53;6219008;23;20000;-94
2023/12/01 07:43:59;;;;;;;30.85;12.30;;;;;;;-0.83;100.00;100593.09;6218701;23;20008;-94
2023/12/01 07:46:27;;;;;;;29.00;11.63;;;;;;;-0.85;100.00;100585.44;6216230;23;20032;-86
2023/12/01 07:51:51;;;;;;;24.25;9.75;;;;;;;-0.74;100.00;100593.38;6216691;23;20016;-86
2023/12/01 07:54:19;;;;;;;24.75;9.38;;;;;;;-0.79;100.00;100572.84;6216451;23;20001;-85
2023/12/01 07:57:00;;;;;;;23.10;8.50;;;;;;;-0.69;100.00;100591.81;6211242;23;20009;-86
2023/12/01 07:59:25;;;;;;;25.50;10.00;;;;;;;-0.74;100.00;100579.75;6241958;22;20341;-86
2023/12/01 08:02:05;;;;;;;26.42;9.93;;;;;;;-0.75;100.00;100575.47;6246534;23;20012;-87
2023/12/01 08:04:46;;;;;;;25.15;9.48;;;;;;;-0.69;100.00;100580.75;6246649;23;20009;-87
2023/12/01 08:07:11;;;;;;;26.50;10.15;;;;;;;-0.68;100.00;100585.88;6246909;23;20008;-87
2023/12/01 08:09:43;;;;;;;29.10;11.27;;;;;;;-0.79;100.00;100574.53;6245958;23;20003;-86
2023/12/01 08:12:25;;;;;;;25.65;10.20;;;;;;;-0.75;100.00;100578.03;6247516;23;20079;-87
2023/12/01 08:15:03;;;;;;;25.23;10.25;;;;;;;-0.69;100.00;100576.50;6247602;23;20349;-88
2023/12/01 08:17:28;;;;;;;26.33;10.23;;;;;;;-0.53;100.00;100600.72;6246130;23;20039;-87
2023/12/01 08:19:56;;;;;;;27.90;11.20;;;;;;;-0.65;100.00;100587.63;6244558;23;20000;-88
2023/12/01 08:22:35;;;;;;;31.30;12.23;;;;;;;-0.60;100.00;100605.59;6220420;22;20013;-86
2023/12/01 08:25:07;;;;;;;32.67;14.75;;;;;;;-0.70;100.00;100594.31;6215875;23;20433;-86
2023/12/01 08:27:33;;;;;;;31.27;12.55;;;;;;;-0.65;100.00;100601.25;6216425;23;20016;-86
2023/12/01 08:29:58;;;;;;;27.00;10.50;;;;;;;-0.49;100.00;100622.03;6215691;23;20001;-86
2023/12/01 08:32:33;;;;;;;27.17;10.15;;;;;;;-0.55;100.00;100610.00;6214952;23;20009;-86
2023/12/01 08:35:05;;;;;;;28.40;11.32;;;;;;;-0.54;100.00;100604.09;6215812;23;20087;-86
2023/12/01 08:37:30;;;;;;;24.80;9.63;;;;;;;-0.42;100.00;100629.06;6215216;23;20329;-86
2023/12/01 08:39:56;;;;;;;25.05;10.10;;;;;;;-0.41;100.00;100620.59;6214229;23;20017;-84
2023/12/01 08:42:26;;;;;;;33.28;14.55;;;;;;;-0.45;100.00;100631.50;6215127;23;20000;-86
2023/12/01 08:45:07;;;;;;;32.17;13.52;;;;;;;-0.45;100.00;100626.41;6216020;23;20028;-87
2023/12/01 08:47:42;;;;;;;30.92;12.73;;;;;;;-0.46;100.00;100632.34;6215166;23;20385;-86
2023/12/01 08:50:07;;;;;;;33.42;14.07;;;;;;;-0.50;100.00;100639.03;6215430;23;20055;-87
2023/12/01 08:52:33;;;;;;;29.88;12.50;;;;;;;-0.58;100.00;100624.34;6217347;23;20017;-88
2023/12/01 08:54:59;;;;;;;30.50;12.32;;;;;;;-0.57;100.00;100626.97;6220595;23;20012;-88
2023/12/01 08:57:43;;;;;;;27.42;10.88;;;;;;;-0.44;100.00;100640.91;6219582;23;20032;-92
2023/12/01 09:00:09;;;;;;;26.55;10.98;;;;;;;-0.53;100.00;100621.09;6217302;23;20009;-86
2023/12/01 09:02:41;;;;;;;30.95;13.23;;;;;;;-0.49;100.00;100635.66;6218559;23;20468;-86
2023/12/01 09:05:09;;;;;;;27.65;11.50;;;;;;;-0.50;100.00;100622.88;6219020;23;20015;-86
2023/12/01 09:07:34;;;;;;;31.38;12.90;;;;;;;-0.46;100.00;100639.97;6217956;23;20016;-86
2023/12/01 09:12:57;;;;;;;29.40;12.70;;;;;;;-0.55;100.00;100630.41;6220147;23;20063;-86
2023/12/01 09:15:29;;;;;;;27.42;11.23;;;;;;;-0.49;100.00;100635.66;6217710;23;20234;-87
2023/12/01 09:17:54;;;;;;;27.85;11.35;;;;;;;-0.45;100.00;100641.72;6218630;23;20000;-87
2023/12/01 09:20:25;;;;;;;31.33;13.02;;;;;;;-0.51;100.00;100637.31;6218042;23;20084;-88
2023/12/01 09:23:06;;;;;;;29.35;11.75;;;;;;;-0.42;100.00;100658.78;6219313;23;20051;-88
2023/12/01 09:25:34;;;;;;;30.02;13.20;;;;;;;-0.48;100.00;100656.91;6219281;23;20009;-87
2023/12/01 09:28:18;;;;;;;30.30;13.00;;;;;;;-0.54;100.00;100654.22;6217313;23;20005;-87
2023/12/01 09:30:50;;;;;;;26.90;11.32;;;;;;;-0.53;100.00;100638.09;6218641;23;20013;-88
2023/12/01 09:33:21;;;;;;;29.52;12.18;;;;;;;-0.47;98.99;100671.41;6219171;23;20009;-87
2023/12/01 09:35:56;;;;;;;30.10;12.85;;;;;;;-0.61;98.25;100658.28;6218843;23;20001;-87
2023/12/01 09:38:40;;;;;;;31.33;13.05;;;;;;;-0.63;99.52;100652.28;6219519;23;20329;-87
2023/12/01 09:41:11;;;;;;;31.63;13.93;;;;;;;-0.63;99.36;100652.28;6219329;23;20032;-85
2023/12/01 09:43:43;;;;;;;29.35;13.13;;;;;;;-0.54;97.82;100672.06;6219723;23;20004;-86
2023/12/01 09:46:34;;;;;;;30.58;12.82;;;;;;;-0.66;98.50;100649.63;6218491;23;20016;-86
2023/12/01 09:48:59;;;;;;;29.38;12.90;;;;;;;-0.55;98.16;100668.63;6210172;23;20004;-86
2023/12/01 09:51:28;;;;;;;28.02;11.32;;;;;;;-0.57;99.94;100660.09;6220349;23;20012;-86
2023/12/01 09:53:54;;;;;;;28.55;12.07;;;;;;;-0.57;98.57;100657.56;6219838;23;20204;-86
2023/12/01 09:56:28;;;;;;;31.40;13.68;;;;;;;-0.46;97.65;100685.88;6219064;23;20008;-86
2023/12/01 09:59:16;;;;;;;29.88;13.25;;;;;;;-0.53;98.29;100682.28;6218926;23;20005;-86
2023/12/01 10:01:51;;;;;;;31.00;13.50;;;;;;;-0.59;98.63;100666.84;6220151;23;20084;-86
2023/12/01 10:04:35;;;;;;;29.27;11.80;;;;;;;-0.48;99.90;100677.31;6215742;23;20062;-86
2023/12/01 10:07:07;;;;;;;29.83;12.88;;;;;;;-0.48;98.68;100674.75;6217199;23;20075;-86
2023/12/01 10:09:32;;;;;;;31.48;13.50;;;;;;;-0.48;99.36;100672.22;6215930;23;20016;-86
2023/12/01 10:12:25;;;;;;;32.45;14.05;;;;;;;-0.41;98.52;100688.53;6216687;23;20001;-85
2023/12/01 10:14:50;;;;;;;32.10;14.13;;;;;;;-0.47;98.20;100689.25;6216869;23;20039;-84
2023/12/01 10:17:38;;;;;;;34.22;14.60;;;;;;;-0.50;98.50;100686.59;6215461;23;20422;-84
2023/12/01 10:20:03;;;;;;;29.75;12.65;;;;;;;-0.58;98.01;100677.88;6216337;23;20023;-84
2023/12/01 10:22:29;;;;;;;32.13;13.85;;;;;;;-0.66;98.27;100665.81;6216235;23;20349;-83
2023/12/01 10:25:03;;;;;;;30.38;13.18;;;;;;;-0.61;98.09;100681.22;6215633;23;20063;-83
2023/12/01 10:27:32;;;;;;;31.48;13.60;;;;;;;-0.59;98.15;100697.44;6215085;23;20016;-83
2023/12/01 10:30:15;;;;;;;30.83;13.32;;;;;;;-0.57;98.01;100695.78;6215991;23;20005;-82
2023/12/01 10:32:43;;;;;;;29.65;12.90;;;;;;;-0.56;98.90;100687.28;6215334;23;20016;-83
2023/12/01 10:35:09;;;;;;;30.58;12.77;;;;;;;-0.62;97.74;100685.44;6215975;23;20043;-84
2023/12/01 10:37:36;;;;;;;29.25;12.48;;;;;;;-0.53;98.45;100692.50;6215728;23;20000;-83
2023/12/01 10:40:13;;;;;;;;;;;;;;;-0.52;96.41;100701.03;6217062;23;20338;-84
2023/12/01 10:42:45;;;;;;;27.77;11.38;;;;;;;-0.54;98.07;100685.66;6216554;23;20237;-83
2023/12/01 10:45:11;;;;;;;28.42;11.80;;;;;;;-0.52;96.35;100686.56;6215761;23;20004;-84
2023/12/01 10:47:44;;;;;;;27.20;11.85;;;;;;;-0.56;97.30;100673.69;6217207;23;20414;-85
2023/12/01 10:50:22;;;;;;;26.92;10.93;;;;;;;-0.53;95.33;100689.94;6216720;23;20016;-84
2023/12/01 10:52:49;;;;;;;28.70;12.05;;;;;;;-0.56;93.48;100700.03;6216309;23;20032;-84
2023/12/01 10:55:14;;;;;;;27.80;11.80;;;;;;;-0.55;95.24;100690.72;6216471;23;20004;-85
2023/12/01 10:57:40;;;;;;;31.20;13.23;;;;;;;-0.60;95.48;100684.63;6216422;23;20013;-84
2023/12/01 11:00:19;;;;;;;28.08;11.50;;;;;;;-0.56;96.52;100689.00;6215797;23;20039;-82
2023/12/01 11:02:48;;;;;;;27.77;11.52;;;;;;;-0.52;97.54;100684.03;6216263;23;20464;-84
2023/12/01 11:05:14;;;;;;;25.25;10.00;;;;;;;-0.44;98.48;100683.34;6216312;23;20015;-83
2023/12/01 11:08:13;;;;;;;27.42;12.05;;;;;;;-0.43;96.61;100690.19;6215486;23;20004;-83
2023/12/01 11:10:44;;;;;;;29.23;11.93;;;;;;;-0.43;97.55;100685.97;6215815;23;20032;-83
2023/12/01 11:13:15;;;;;;;31.27;13.55;;;;;;;-0.50;97.58;100682.38;6215185;23;20011;-84
2023/12/01 11:15:43;;;;;;;30.33;12.85;;;;;;;-0.51;98.02;100680.66;6216202;23;20027;-84
2023/12/01 11:18:10;;;;;;;28.73;11.98;;;;;;;-0.45;98.93;100676.56;6215560;23;20422;-83
2023/12/01 11:20:46;;;;;;;27.70;12.32;;;;;;;-0.51;96.50;100678.09;6215749;23;20307;-83
2023/12/01 11:23:12;;;;;;;27.35;11.45;;;;;;;-0.48;97.97;100679.88;6215838;23;20004;-83
2023/12/01 11:25:46;;;;;;;28.97;12.77;;;;;;;-0.58;95.61;100691.53;6216266;23;20008;-83
2023/12/01 11:28:22;;;;;;;28.98;12.32;;;;;;;-0.68;95.21;100684.44;6215173;23;20005;-82
2023/12/01 11:31:01;;;;;;;28.95;12.40;;;;;;;-0.58;97.12;100680.44;6216029;23;20020;-83